createdAt,value
2022-09-21T00:01:28.977Z,14.83
2022-09-21T00:03:59.003Z,14.65
2022-09-21T00:06:29.060Z,14.56
2022-09-21T00:08:58.962Z,14.42
2022-09-21T00:11:29.658Z,14.30
2022-09-21T00:14:01.046Z,14.27
2022-09-21T00:16:30.246Z,14.20
2022-09-21T00:18:58.643Z,14.13
2022-09-21T00:21:28.386Z,14.17
2022-09-21T00:23:59.424Z,14.09
2022-09-21T00:26:28.901Z,13.97
2022-09-21T00:28:58.927Z,13.97
2022-09-21T00:31:28.881Z,13.86
2022-09-21T00:33:58.467Z,13.76
2022-09-21T00:36:27.656Z,13.74
2022-09-21T00:38:59.818Z,13.61
2022-09-21T00:41:29.085Z,13.51
2022-09-21T00:44:27.299Z,13.45
2022-09-21T00:46:58.107Z,13.34
2022-09-21T00:49:28.687Z,13.26
2022-09-21T00:52:00.369Z,13.16
2022-09-21T00:54:33.843Z,13.10
2022-09-21T00:57:03.146Z,13.10
2022-09-21T00:59:33.528Z,13.06
2022-09-21T01:02:02.364Z,12.97
2022-09-21T01:04:31.766Z,12.85
2022-09-21T01:07:04.202Z,12.82
2022-09-21T01:09:34.594Z,12.86
2022-09-21T01:12:17.961Z,12.92
2022-09-21T01:15:07.215Z,12.86
2022-09-21T01:17:44.405Z,12.85
2022-09-21T01:20:29.339Z,12.79
2022-09-21T01:23:11.209Z,12.81
2022-09-21T01:25:53.257Z,12.82
2022-09-21T01:28:30.532Z,12.73
2022-09-21T01:31:06.152Z,12.75
2022-09-21T01:33:40.826Z,12.77
2022-09-21T01:36:15.165Z,12.52
2022-09-21T01:38:46.594Z,12.57
2022-09-21T01:41:17.528Z,12.70
2022-09-21T01:43:50.460Z,12.69
2022-09-21T01:46:23.213Z,12.69
2022-09-21T01:48:56.048Z,12.68
2022-09-21T01:51:29.665Z,12.65
2022-09-21T01:54:03.275Z,12.61
2022-09-21T01:56:37.303Z,12.62
2022-09-21T01:59:18.071Z,12.57
2022-09-21T02:01:53.379Z,12.49
2022-09-21T02:04:21.817Z,12.43
2022-09-21T02:06:52.176Z,12.44
2022-09-21T02:09:21.039Z,12.43
2022-09-21T02:11:49.235Z,12.45
2022-09-21T02:14:21.606Z,12.39
2022-09-21T02:17:02.657Z,12.32
2022-09-21T02:19:38.284Z,12.29
2022-09-21T02:22:12.892Z,12.28
2022-09-21T02:24:43.699Z,12.11
2022-09-21T02:27:25.608Z,12.26
2022-09-21T02:30:03.443Z,12.18
2022-09-21T02:32:39.597Z,12.14
2022-09-21T02:35:15.848Z,12.12
2022-09-21T02:37:52.108Z,12.05
2022-09-21T02:40:26.867Z,12.00
2022-09-21T02:42:58.229Z,11.97
2022-09-21T02:45:29.552Z,11.90
2022-09-21T02:48:04.600Z,11.80
2022-09-21T02:50:37.822Z,10.92
2022-09-21T02:53:08.895Z,11.65
2022-09-21T02:55:37.433Z,11.60
2022-09-21T02:58:09.109Z,11.57
2022-09-21T03:00:38.192Z,11.57
2022-09-21T03:03:18.418Z,11.59
2022-09-21T03:05:49.065Z,11.62
2022-09-21T03:08:17.379Z,11.67
2022-09-21T03:10:46.296Z,11.68
2022-09-21T03:13:15.214Z,11.65
2022-09-21T03:15:43.990Z,11.67
2022-09-21T03:18:13.696Z,11.73
2022-09-21T03:20:47.135Z,11.78
2022-09-21T03:23:16.024Z,11.81
2022-09-21T03:25:45.680Z,11.60
2022-09-21T03:28:14.745Z,11.87
2022-09-21T03:30:44.146Z,11.86
2022-09-21T03:33:12.996Z,11.98
2022-09-21T03:35:42.840Z,12.02
2022-09-21T03:38:11.348Z,11.95
2022-09-21T03:40:39.633Z,11.89
2022-09-21T03:43:07.933Z,11.86
2022-09-21T03:45:36.204Z,11.73
2022-09-21T03:48:04.506Z,11.65
2022-09-21T03:50:32.718Z,11.60
2022-09-21T03:53:02.410Z,11.51
2022-09-21T03:55:31.723Z,11.46
2022-09-21T03:58:00.065Z,11.30
2022-09-21T04:00:28.359Z,11.22
2022-09-21T04:02:56.960Z,11.16
2022-09-21T04:05:25.496Z,11.02
2022-09-21T04:07:55.999Z,10.79
2022-09-21T04:10:29.356Z,11.01
2022-09-21T04:12:59.404Z,10.91
2022-09-21T04:15:27.607Z,10.89
2022-09-21T04:17:55.913Z,10.81
2022-09-21T04:20:24.731Z,10.77
2022-09-21T04:22:53.076Z,10.71
2022-09-21T04:25:21.716Z,10.70
2022-09-21T04:27:52.322Z,10.65
2022-09-21T04:30:20.627Z,10.48
2022-09-21T04:32:48.913Z,10.41
2022-09-21T04:35:17.315Z,10.46
2022-09-21T04:37:45.618Z,10.57
2022-09-21T04:40:13.946Z,10.72
2022-09-21T04:42:42.160Z,10.81
2022-09-21T04:45:12.649Z,10.89
2022-09-21T04:47:40.969Z,10.83
2022-09-21T04:50:10.080Z,10.73
2022-09-21T04:52:38.412Z,10.70
2022-09-21T04:55:07.584Z,10.63
2022-09-21T04:57:36.580Z,10.62
2022-09-21T05:00:05.711Z,10.59
2022-09-21T05:02:35.387Z,10.56
2022-09-21T05:05:03.647Z,10.45
2022-09-21T05:07:31.868Z,10.46
2022-09-21T05:10:05.151Z,10.34
2022-09-21T05:12:37.540Z,10.41
2022-09-21T05:15:09.056Z,10.40
2022-09-21T05:17:38.790Z,10.41
2022-09-21T05:20:07.989Z,10.37
2022-09-21T05:22:36.268Z,10.34
2022-09-21T05:25:05.008Z,10.31
2022-09-21T05:27:33.260Z,10.35
2022-09-21T05:30:02.184Z,10.35
2022-09-21T05:32:43.884Z,10.36
2022-09-21T05:35:19.935Z,10.38
2022-09-21T05:37:56.608Z,10.40
2022-09-21T05:40:25.672Z,10.39
2022-09-21T05:42:54.421Z,10.40
2022-09-21T05:45:23.400Z,10.42
2022-09-21T05:48:01.210Z,10.47
2022-09-21T05:50:47.669Z,10.49
2022-09-21T05:53:33.977Z,10.35
2022-09-21T05:56:08.218Z,10.54
2022-09-21T05:58:44.864Z,10.61
2022-09-21T06:01:26.339Z,10.73
2022-09-21T06:03:58.084Z,10.77
2022-09-21T06:06:26.474Z,10.75
2022-09-21T06:08:54.615Z,10.74
2022-09-21T06:11:23.121Z,10.85
2022-09-21T06:13:51.325Z,10.96
2022-09-21T06:16:19.671Z,10.99
2022-09-21T06:18:47.895Z,11.06
2022-09-21T06:21:18.480Z,11.13
2022-09-21T06:23:46.827Z,11.21
2022-09-21T06:26:15.043Z,11.26
2022-09-21T06:28:43.305Z,11.34
2022-09-21T06:31:11.540Z,11.53
2022-09-21T06:33:40.049Z,11.75
2022-09-21T06:36:08.484Z,12.00
2022-09-21T06:38:38.160Z,12.23
2022-09-21T06:41:06.953Z,12.41
2022-09-21T06:43:35.177Z,12.52
2022-09-21T06:46:04.265Z,12.65
2022-09-21T06:48:35.513Z,12.74
2022-09-21T06:51:05.509Z,12.83
2022-09-21T06:53:37.260Z,12.70
2022-09-21T06:56:08.643Z,13.09
2022-09-21T06:58:37.941Z,13.24
2022-09-21T07:01:08.709Z,13.40
2022-09-21T07:03:37.815Z,13.63
2022-09-21T07:06:07.012Z,13.82
2022-09-21T07:11:27.580Z,14.20
2022-09-21T07:13:56.063Z,14.40
2022-09-21T07:16:24.622Z,14.59
2022-09-21T07:18:52.874Z,14.76
2022-09-21T07:21:21.231Z,14.93
2022-09-21T07:23:50.956Z,15.09
2022-09-21T07:26:19.658Z,15.22
2022-09-21T07:28:48.702Z,15.35
2022-09-21T07:31:18.647Z,15.50
2022-09-21T07:33:47.747Z,15.65
2022-09-21T07:36:17.872Z,15.77
2022-09-21T07:38:46.385Z,15.95
2022-09-21T07:41:16.546Z,16.09
2022-09-21T07:43:44.748Z,16.20
2022-09-21T07:46:15.936Z,16.38
2022-09-21T07:48:44.481Z,16.50
2022-09-21T07:51:14.483Z,16.60
2022-09-21T07:53:45.460Z,16.67
2022-09-21T07:56:17.079Z,16.83
2022-09-21T07:59:03.053Z,17.02
2022-09-21T08:01:32.242Z,17.17
2022-09-21T08:04:01.337Z,17.33
2022-09-21T08:06:32.972Z,17.47
2022-09-21T08:09:01.544Z,17.60
2022-09-21T08:11:33.735Z,17.74
2022-09-21T08:14:03.950Z,17.79
2022-09-21T08:16:34.224Z,17.91
2022-09-21T08:19:03.229Z,18.12
2022-09-21T08:21:31.501Z,18.41
2022-09-21T08:23:59.744Z,18.74
2022-09-21T08:26:28.094Z,19.01
2022-09-21T08:28:59.017Z,19.32
2022-09-21T08:31:27.949Z,19.67
2022-09-21T08:33:57.401Z,19.97
2022-09-21T08:36:25.920Z,20.16
2022-09-21T08:38:55.234Z,20.34
2022-09-21T08:41:26.499Z,20.53
2022-09-21T08:44:00.998Z,20.66
2022-09-21T08:46:31.039Z,20.87
2022-09-21T08:49:07.126Z,20.95
2022-09-21T08:51:39.550Z,20.91
2022-09-21T08:54:15.220Z,20.80
2022-09-21T08:57:03.965Z,20.62
2022-09-21T08:59:33.256Z,20.56
2022-09-21T09:02:16.267Z,20.49
2022-09-21T09:04:57.165Z,19.91
2022-09-21T09:07:43.697Z,20.27
2022-09-21T09:10:29.672Z,20.25
2022-09-21T09:13:14.272Z,20.15
2022-09-21T09:15:57.083Z,20.15
2022-09-21T09:18:30.770Z,20.23
2022-09-21T09:21:04.603Z,20.24
2022-09-21T09:23:36.174Z,20.22
2022-09-21T09:26:10.132Z,20.17
2022-09-21T09:28:44.950Z,20.15
2022-09-21T09:31:20.506Z,20.14
2022-09-21T09:33:55.596Z,20.09
2022-09-21T09:36:53.927Z,20.11
2022-09-21T09:39:22.570Z,20.16
2022-09-21T09:42:20.051Z,20.28
2022-09-21T09:45:20.746Z,20.32
2022-09-21T09:48:05.344Z,20.41
2022-09-21T09:50:36.417Z,20.45
2022-09-21T09:53:08.421Z,20.51
2022-09-21T09:55:40.212Z,20.53
2022-09-21T09:58:21.297Z,20.57
2022-09-21T10:00:53.306Z,20.59
2022-09-21T10:03:24.567Z,20.58
2022-09-21T10:05:54.294Z,20.63
2022-09-21T10:08:42.157Z,20.73
2022-09-21T10:11:12.331Z,20.81
2022-09-21T10:13:43.218Z,20.94
2022-09-21T10:16:16.944Z,21.02
2022-09-21T10:18:52.621Z,21.11
2022-09-21T10:21:23.819Z,21.07
2022-09-21T10:23:54.400Z,21.35
2022-09-21T10:26:23.834Z,21.45
2022-09-21T10:29:00.751Z,21.55
2022-09-21T10:31:30.510Z,21.63
2022-09-21T10:34:14.425Z,21.74
2022-09-21T10:36:50.136Z,21.82
2022-09-21T10:39:28.280Z,22.00
2022-09-21T10:42:00.832Z,22.13
2022-09-21T10:44:35.877Z,22.28
2022-09-21T10:47:17.065Z,22.37
2022-09-21T10:49:51.406Z,22.53
2022-09-21T10:52:23.424Z,22.67
2022-09-21T10:54:56.479Z,22.86
2022-09-21T10:57:27.135Z,23.03
2022-09-21T10:59:57.384Z,23.19
2022-09-21T11:02:46.699Z,23.37
2022-09-21T11:05:18.800Z,23.46
2022-09-21T11:07:53.475Z,23.55
2022-09-21T11:10:33.982Z,23.62
2022-09-21T11:13:18.571Z,23.60
2022-09-21T11:15:53.418Z,23.60
2022-09-21T11:18:27.813Z,23.61
2022-09-21T11:21:08.376Z,23.61
2022-09-21T11:23:49.907Z,23.64
2022-09-21T11:26:26.166Z,23.59
2022-09-21T11:29:01.293Z,23.56
2022-09-21T11:31:50.680Z,23.49
2022-09-21T11:34:40.393Z,23.53
2022-09-21T11:37:19.590Z,23.54
2022-09-21T11:40:04.521Z,23.57
2022-09-21T11:42:50.182Z,23.62
2022-09-21T11:45:48.442Z,23.64
2022-09-21T11:48:28.875Z,23.64
2022-09-21T11:51:09.643Z,23.72
2022-09-21T11:53:54.241Z,23.83
2022-09-21T11:56:44.330Z,23.91
2022-09-21T11:59:42.480Z,23.89
2022-09-21T12:02:43.558Z,23.96
2022-09-21T12:05:21.419Z,23.96
2022-09-21T12:08:07.939Z,23.97
2022-09-21T12:10:48.051Z,24.02
2022-09-21T12:13:26.096Z,24.03
2022-09-21T12:16:03.061Z,24.11
2022-09-21T12:18:36.457Z,24.14
2022-09-21T12:21:13.949Z,24.18
2022-09-21T12:23:45.028Z,24.22
2022-09-21T12:26:18.817Z,24.30
2022-09-21T12:28:52.543Z,24.37
2022-09-21T12:31:27.615Z,24.40
2022-09-21T12:34:00.324Z,24.47
2022-09-21T12:36:36.998Z,24.51
2022-09-21T12:39:14.550Z,24.58
2022-09-21T12:41:52.375Z,24.63
2022-09-21T12:44:27.272Z,24.50
2022-09-21T12:47:09.495Z,24.75
2022-09-21T12:49:43.432Z,24.81
2022-09-21T12:52:22.498Z,24.87
2022-09-21T12:54:59.303Z,24.96
2022-09-21T12:57:58.785Z,24.99
2022-09-21T13:00:36.341Z,25.01
2022-09-21T13:03:12.772Z,25.04
2022-09-21T13:05:56.748Z,25.02
2022-09-21T13:08:29.831Z,24.88
2022-09-21T13:11:04.673Z,25.04
2022-09-21T13:13:38.598Z,25.11
2022-09-21T13:16:08.462Z,25.18
2022-09-21T13:18:39.266Z,25.22
2022-09-21T13:21:18.689Z,25.22
2022-09-21T13:23:54.633Z,25.22
2022-09-21T13:26:34.063Z,25.21
2022-09-21T13:29:08.101Z,25.27
2022-09-21T13:32:00.446Z,25.01
2022-09-21T13:34:31.355Z,25.20
2022-09-21T13:37:30.905Z,25.16
2022-09-21T13:40:41.650Z,25.13
2022-09-21T13:43:48.228Z,25.16
2022-09-21T13:46:56.228Z,25.13
2022-09-21T13:49:54.866Z,25.11
2022-09-21T13:52:34.662Z,25.13
2022-09-21T13:55:05.987Z,25.13
2022-09-21T13:57:39.539Z,25.16
2022-09-21T14:00:28.491Z,25.12
2022-09-21T14:03:04.373Z,25.10
2022-09-21T14:05:37.328Z,25.14
2022-09-21T14:08:08.907Z,25.17
2022-09-21T14:10:39.466Z,25.18
2022-09-21T14:13:27.464Z,25.15
2022-09-21T14:15:55.806Z,24.91
2022-09-21T14:18:41.363Z,25.04
2022-09-21T14:21:17.685Z,25.01
2022-09-21T14:24:19.757Z,24.92
2022-09-21T14:26:55.360Z,24.86
2022-09-21T14:29:27.444Z,24.71
2022-09-21T14:31:59.597Z,24.86
2022-09-21T14:34:37.709Z,24.87
2022-09-21T14:37:17.157Z,24.85
2022-09-21T14:39:47.500Z,24.81
2022-09-21T14:42:20.657Z,24.62
2022-09-21T14:44:51.683Z,24.77
2022-09-21T14:47:43.830Z,24.77
2022-09-21T14:50:31.693Z,24.75
2022-09-21T14:53:18.300Z,24.72
2022-09-21T14:56:03.986Z,24.69
2022-09-21T14:58:45.191Z,24.66
2022-09-21T15:01:36.605Z,24.62
2022-09-21T15:04:27.624Z,24.59
2022-09-21T15:07:24.817Z,24.54
2022-09-21T15:10:29.821Z,24.52
2022-09-21T15:13:03.413Z,24.51
2022-09-21T15:15:38.497Z,24.55
2022-09-21T15:18:17.949Z,24.54
2022-09-21T15:20:46.332Z,24.51
2022-09-21T15:23:20.651Z,23.93
2022-09-21T15:25:58.989Z,24.54
2022-09-21T15:28:32.785Z,24.54
2022-09-21T15:31:10.848Z,24.43
2022-09-21T15:33:42.253Z,24.37
2022-09-21T15:36:10.632Z,24.34
2022-09-21T15:38:40.471Z,24.30
2022-09-21T15:41:27.707Z,24.27
2022-09-21T15:44:12.920Z,24.10
2022-09-21T15:46:43.441Z,24.29
2022-09-21T15:49:15.410Z,24.35
2022-09-21T15:51:46.480Z,24.40
2022-09-21T15:54:30.101Z,24.41
2022-09-21T15:56:59.453Z,24.35
2022-09-21T15:59:28.600Z,24.29
2022-09-21T16:01:59.769Z,24.27
2022-09-21T16:04:30.090Z,24.20
2022-09-21T16:07:05.771Z,24.13
2022-09-21T16:09:45.160Z,24.09
2022-09-21T16:12:35.113Z,23.95
2022-09-21T16:15:08.117Z,24.00
2022-09-21T16:17:38.788Z,23.96
2022-09-21T16:20:19.915Z,23.81
2022-09-21T16:22:50.889Z,23.87
2022-09-21T16:25:32.594Z,23.83
2022-09-21T16:28:02.579Z,23.80
2022-09-21T16:30:49.133Z,23.75
2022-09-21T16:33:43.998Z,23.65
2022-09-21T16:36:36.721Z,23.56
2022-09-21T16:39:14.190Z,23.28
2022-09-21T16:41:48.556Z,23.42
2022-09-21T16:44:21.017Z,23.33
2022-09-21T16:46:52.736Z,23.26
2022-09-21T16:49:22.065Z,23.20
2022-09-21T16:51:52.275Z,23.15
2022-09-21T16:54:25.348Z,23.10
2022-09-21T16:56:56.595Z,23.03
2022-09-21T16:59:25.790Z,22.96
2022-09-21T17:01:56.717Z,22.90
2022-09-21T17:04:27.666Z,22.82
2022-09-21T17:06:56.489Z,22.72
2022-09-21T17:09:29.818Z,22.62
2022-09-21T17:12:01.731Z,22.50
2022-09-21T17:14:33.044Z,22.40
2022-09-21T17:17:04.088Z,22.38
2022-09-21T17:19:33.073Z,22.28
2022-09-21T17:22:01.280Z,22.20
2022-09-21T17:24:49.286Z,22.11
2022-09-21T17:27:21.463Z,22.02
2022-09-21T17:29:50.741Z,21.93
2022-09-21T17:32:21.287Z,21.84
2022-09-21T17:34:56.454Z,21.66
2022-09-21T17:37:25.410Z,21.61
2022-09-21T17:39:54.410Z,21.49
2022-09-21T17:42:25.997Z,21.31
2022-09-21T17:45:05.029Z,21.10
2022-09-21T17:47:34.120Z,20.93
2022-09-21T17:50:16.267Z,20.69
2022-09-21T17:53:02.862Z,20.65
2022-09-21T17:55:32.184Z,20.47
2022-09-21T17:58:17.432Z,20.37
2022-09-21T18:00:54.527Z,20.22
2022-09-21T18:03:24.956Z,19.85
2022-09-21T18:05:59.440Z,19.84
2022-09-21T18:08:28.807Z,19.68
2022-09-21T18:11:04.778Z,19.53
2022-09-21T18:13:44.492Z,19.40
2022-09-21T18:16:27.811Z,19.25
2022-09-21T18:19:05.835Z,19.16
2022-09-21T18:21:38.590Z,19.04
2022-09-21T18:24:20.880Z,18.94
2022-09-21T18:26:52.275Z,18.53
2022-09-21T18:29:40.847Z,18.76
2022-09-21T18:32:32.343Z,18.59
2022-09-21T18:35:17.057Z,18.49
2022-09-21T18:37:57.945Z,18.19
2022-09-21T18:40:34.581Z,18.33
2022-09-21T18:43:13.670Z,18.31
2022-09-21T18:45:48.152Z,18.34
2022-09-21T18:48:29.684Z,18.30
2022-09-21T18:51:06.146Z,18.19
2022-09-21T18:53:42.005Z,18.02
2022-09-21T18:56:12.031Z,17.98
2022-09-21T18:58:41.684Z,17.95
2022-09-21T19:01:13.368Z,17.97
2022-09-21T19:03:44.016Z,18.06
2022-09-21T19:06:26.462Z,18.07
2022-09-21T19:09:03.990Z,18.06
2022-09-21T19:11:38.468Z,18.06
2022-09-21T19:14:15.448Z,18.16
2022-09-21T19:17:00.898Z,18.22
2022-09-21T19:19:37.571Z,18.22
2022-09-21T19:22:26.821Z,18.24
2022-09-21T19:25:02.487Z,18.26
2022-09-21T19:27:42.158Z,18.26
2022-09-21T19:30:13.875Z,18.27
2022-09-21T19:32:46.407Z,18.22
2022-09-21T19:35:21.331Z,18.18
2022-09-21T19:37:51.012Z,18.10
2022-09-21T19:40:24.280Z,18.06
2022-09-21T19:43:20.858Z,17.99
2022-09-21T19:46:07.252Z,17.91
2022-09-21T19:48:43.667Z,17.88
2022-09-21T19:51:19.534Z,17.93
2022-09-21T19:54:12.846Z,17.83
2022-09-21T19:57:04.996Z,17.99
2022-09-21T19:59:50.856Z,17.92
2022-09-21T20:02:23.861Z,17.86
2022-09-21T20:04:57.606Z,17.37
2022-09-21T20:07:35.692Z,18.70
2022-09-21T20:10:45.369Z,18.13
2022-09-21T20:13:23.673Z,17.88
2022-09-21T20:16:00.057Z,17.69
2022-09-21T20:18:37.330Z,17.57
2022-09-21T20:21:15.133Z,17.48
2022-09-21T20:23:45.244Z,17.39
2022-09-21T20:26:24.668Z,17.32
2022-09-21T20:28:53.940Z,17.22
2022-09-21T20:31:23.067Z,17.14
2022-09-21T20:33:51.402Z,17.05
2022-09-21T20:36:21.056Z,16.98
2022-09-21T20:38:49.408Z,17.00
2022-09-21T20:41:19.293Z,16.96
2022-09-21T20:43:47.664Z,16.88
2022-09-21T20:46:16.016Z,16.79
2022-09-21T20:48:44.487Z,16.70
2022-09-21T20:51:12.802Z,16.54
2022-09-21T20:53:42.448Z,16.40
2022-09-21T20:56:12.004Z,16.29
2022-09-21T20:58:40.301Z,16.22
2022-09-21T21:01:10.259Z,16.15
2022-09-21T21:03:38.734Z,16.04
2022-09-21T21:06:11.657Z,16.06
2022-09-21T21:08:40.080Z,16.07
2022-09-21T21:11:10.745Z,16.08
2022-09-21T21:13:40.124Z,16.02
2022-09-21T21:16:12.127Z,15.92
2022-09-21T21:18:41.508Z,15.86
2022-09-21T21:21:10.243Z,15.88
2022-09-21T21:23:52.558Z,15.66
2022-09-21T21:26:33.577Z,15.61
2022-09-21T21:29:10.822Z,15.50
2022-09-21T21:31:40.011Z,15.47
2022-09-21T21:34:08.553Z,15.42
2022-09-21T21:36:38.915Z,15.32
2022-09-21T21:39:07.356Z,15.20
2022-09-21T21:41:37.851Z,15.15
2022-09-21T21:44:06.313Z,15.07
2022-09-21T21:46:34.812Z,15.07
2022-09-21T21:49:03.215Z,15.13
2022-09-21T21:51:32.188Z,15.17
2022-09-21T21:54:00.649Z,15.16
2022-09-21T21:56:29.811Z,15.10
2022-09-21T21:58:59.563Z,15.02
2022-09-21T22:01:32.041Z,14.87
2022-09-21T22:04:03.489Z,14.75
2022-09-21T22:06:33.547Z,14.57
2022-09-21T22:09:03.053Z,14.61
2022-09-21T22:11:32.208Z,14.60
2022-09-21T22:14:03.018Z,14.61
2022-09-21T22:16:32.908Z,14.62
2022-09-21T22:19:04.329Z,14.63
2022-09-21T22:21:34.850Z,14.61
2022-09-21T22:24:05.603Z,14.59
2022-09-21T22:26:38.125Z,14.56
2022-09-21T22:29:10.717Z,14.53
2022-09-21T22:31:41.236Z,14.50
2022-09-21T22:34:10.315Z,14.34
2022-09-21T22:36:39.640Z,14.44
2022-09-21T22:39:09.390Z,14.40
2022-09-21T22:41:40.020Z,14.35
2022-09-21T22:44:10.701Z,14.30
2022-09-21T22:46:40.042Z,14.24
2022-09-21T22:49:08.622Z,14.15
2022-09-21T22:51:38.173Z,14.13
2022-09-21T22:54:06.798Z,14.13
2022-09-21T22:56:36.133Z,14.08
2022-09-21T22:59:06.198Z,14.01
2022-09-21T23:01:37.941Z,13.97
2022-09-21T23:04:09.606Z,13.99
2022-09-21T23:06:39.699Z,13.98
2022-09-21T23:09:13.510Z,13.87
2022-09-21T23:11:46.662Z,13.82
2022-09-21T23:14:15.843Z,13.75
2022-09-21T23:16:45.753Z,13.67
2022-09-21T23:19:16.572Z,13.62
2022-09-21T23:21:46.789Z,13.59
2022-09-21T23:24:15.371Z,13.54
2022-09-21T23:26:44.108Z,13.34
2022-09-21T23:29:14.492Z,13.24
2022-09-21T23:31:45.562Z,13.45
2022-09-21T23:34:16.728Z,13.49
2022-09-21T23:36:46.254Z,13.49
2022-09-21T23:39:16.188Z,13.47
2022-09-21T23:41:44.990Z,13.42
2022-09-21T23:44:13.317Z,13.37
2022-09-21T23:46:42.197Z,13.32
2022-09-21T23:49:11.036Z,13.23
2022-09-21T23:51:40.900Z,13.19
2022-09-21T23:54:09.277Z,13.12
2022-09-21T23:56:38.069Z,13.06
2022-09-21T23:59:06.945Z,13.02
